createdAt,value
2022-08-17T00:01:38.504Z,19.91
2022-08-17T00:04:19.913Z,20.08
2022-08-17T00:06:49.151Z,20.15
2022-08-17T00:09:18.681Z,20.11
2022-08-17T00:12:03.915Z,20.01
2022-08-17T00:14:36.257Z,20.02
2022-08-17T00:17:04.874Z,20.18
2022-08-17T00:19:32.856Z,20.25
2022-08-17T00:22:33.213Z,20.27
2022-08-17T00:24:49.901Z,20.24
2022-08-17T00:27:16.591Z,20.25
2022-08-17T00:29:45.507Z,20.22
2022-08-17T00:33:23.255Z,20.22
2022-08-17T00:34:59.898Z,20.25
2022-08-17T00:37:26.643Z,20.29
2022-08-17T00:39:53.272Z,20.49
2022-08-17T00:42:19.978Z,20.58
2022-08-17T00:44:46.566Z,20.68
2022-08-17T00:47:13.159Z,20.76
2022-08-17T00:49:39.839Z,20.78
2022-08-17T00:52:15.505Z,20.86
2022-08-17T00:54:45.099Z,20.94
2022-08-17T00:57:18.138Z,21.03
2022-08-17T00:59:51.106Z,21.06
2022-08-17T01:02:41.402Z,21.03
2022-08-17T01:05:14.149Z,20.97
2022-08-17T01:07:41.807Z,20.93
2022-08-17T01:10:58.269Z,20.91
2022-08-17T01:12:59.738Z,20.99
2022-08-17T01:15:26.329Z,20.97
2022-08-17T01:17:52.913Z,20.95
2022-08-17T01:20:19.624Z,20.95
2022-08-17T01:22:46.274Z,20.82
2022-08-17T01:25:14.300Z,20.79
2022-08-17T01:27:42.387Z,20.61
2022-08-17T01:30:54.155Z,20.43
2022-08-17T01:32:59.337Z,20.24
2022-08-17T01:35:25.958Z,20.08
2022-08-17T01:37:52.947Z,20.07
2022-08-17T01:40:31.877Z,20.04
2022-08-17T01:43:22.809Z,20.14
2022-08-17T01:46:03.856Z,20.15
2022-08-17T01:48:33.683Z,20.17
2022-08-17T01:51:00.925Z,20.21
2022-08-17T01:53:40.343Z,20.24
2022-08-17T01:56:11.224Z,20.20
2022-08-17T01:58:38.922Z,20.09
2022-08-17T02:01:07.740Z,20.03
2022-08-17T02:03:36.509Z,20.03
2022-08-17T02:06:05.238Z,20.04
2022-08-17T02:08:38.104Z,20.08
2022-08-17T02:11:14.604Z,20.17
2022-08-17T02:13:42.142Z,20.29
2022-08-17T02:16:08.711Z,20.33
2022-08-17T02:18:35.380Z,20.36
2022-08-17T02:21:02.319Z,20.33
2022-08-17T02:23:32.321Z,20.36
2022-08-17T02:26:00.580Z,20.39
2022-08-17T02:28:28.571Z,20.39
2022-08-17T02:31:04.850Z,20.45
2022-08-17T02:33:42.872Z,20.52
2022-08-17T02:36:12.105Z,20.51
2022-08-17T02:38:39.834Z,20.54
2022-08-17T02:41:06.785Z,20.59
2022-08-17T02:43:33.384Z,20.50
2022-08-17T02:46:00.006Z,19.25
2022-08-17T02:48:30.951Z,18.73
2022-08-17T02:50:59.604Z,18.54
2022-08-17T02:53:26.535Z,18.59
2022-08-17T02:55:53.754Z,18.62
2022-08-17T02:58:32.064Z,18.41
2022-08-17T03:01:05.715Z,18.58
2022-08-17T03:03:32.992Z,18.53
2022-08-17T03:05:59.591Z,18.57
2022-08-17T03:08:26.793Z,18.32
2022-08-17T03:10:53.493Z,18.43
2022-08-17T03:13:20.769Z,18.23
2022-08-17T03:15:48.527Z,18.49
2022-08-17T03:18:25.565Z,18.34
2022-08-17T03:21:00.397Z,18.34
2022-08-17T03:23:28.052Z,18.27
2022-08-17T03:25:56.699Z,18.22
2022-08-17T03:28:23.633Z,18.17
2022-08-17T03:30:51.472Z,18.15
2022-08-17T03:33:18.975Z,18.21
2022-08-17T03:35:45.708Z,18.21
2022-08-17T03:38:15.026Z,18.05
2022-08-17T03:40:56.878Z,18.10
2022-08-17T03:43:28.511Z,18.02
2022-08-17T03:46:28.528Z,18.00
2022-08-17T03:49:18.857Z,17.90
2022-08-17T03:52:03.881Z,17.90
2022-08-17T03:54:49.381Z,18.01
2022-08-17T03:57:16.699Z,18.01
2022-08-17T03:59:43.384Z,18.04
2022-08-17T04:02:25.558Z,18.02
2022-08-17T04:04:52.761Z,17.98
2022-08-17T04:07:25.277Z,17.99
2022-08-17T04:09:52.181Z,17.94
2022-08-17T04:12:20.354Z,17.88
2022-08-17T04:14:53.481Z,17.83
2022-08-17T04:17:27.893Z,17.81
2022-08-17T04:19:55.798Z,17.70
2022-08-17T04:22:31.906Z,17.64
2022-08-17T04:25:16.048Z,17.55
2022-08-17T04:27:42.691Z,17.39
2022-08-17T04:30:09.935Z,17.16
2022-08-17T04:33:05.366Z,17.13
2022-08-17T04:35:38.305Z,17.12
2022-08-17T04:38:06.705Z,17.19
2022-08-17T04:40:53.007Z,17.20
2022-08-17T04:43:21.668Z,17.25
2022-08-17T04:45:56.330Z,17.27
2022-08-17T04:48:35.993Z,17.31
2022-08-17T04:51:09.895Z,17.25
2022-08-17T04:53:37.635Z,17.33
2022-08-17T04:56:05.098Z,17.31
2022-08-17T04:58:32.093Z,17.37
2022-08-17T05:00:58.708Z,17.38
2022-08-17T05:03:26.167Z,17.34
2022-08-17T05:05:53.735Z,17.34
2022-08-17T05:08:21.016Z,17.43
2022-08-17T05:10:48.603Z,17.46
2022-08-17T05:13:18.658Z,17.41
2022-08-17T05:15:48.643Z,17.46
2022-08-17T05:18:17.104Z,17.53
2022-08-17T05:20:44.835Z,17.52
2022-08-17T05:23:15.234Z,17.50
2022-08-17T05:25:47.763Z,17.50
2022-08-17T05:28:16.439Z,17.52
2022-08-17T05:30:44.532Z,17.52
2022-08-17T05:33:16.714Z,17.45
2022-08-17T05:35:47.019Z,17.46
2022-08-17T05:38:15.202Z,17.41
2022-08-17T05:40:41.859Z,17.39
2022-08-17T05:43:08.605Z,17.31
2022-08-17T05:45:55.755Z,17.21
2022-08-17T05:48:39.776Z,17.14
2022-08-17T05:51:31.094Z,17.12
2022-08-17T05:54:28.517Z,17.02
2022-08-17T05:57:22.902Z,16.96
2022-08-17T06:00:30.360Z,16.90
2022-08-17T06:03:19.929Z,16.94
2022-08-17T06:06:01.435Z,16.95
2022-08-17T06:08:37.979Z,17.00
2022-08-17T06:11:38.897Z,17.04
2022-08-17T06:14:22.259Z,17.05
2022-08-17T06:16:56.782Z,17.02
2022-08-17T06:19:43.874Z,17.08
2022-08-17T06:22:15.249Z,17.12
2022-08-17T06:25:01.064Z,17.10
2022-08-17T06:28:04.962Z,17.08
2022-08-17T06:30:58.605Z,17.03
2022-08-17T06:33:35.241Z,17.01
2022-08-17T06:36:10.699Z,16.98
2022-08-17T06:39:04.494Z,16.94
2022-08-17T06:41:49.583Z,16.94
2022-08-17T06:44:50.135Z,16.87
2022-08-17T06:47:29.816Z,16.78
2022-08-17T06:50:07.719Z,16.74
2022-08-17T06:52:47.518Z,16.61
2022-08-17T06:55:26.805Z,16.61
2022-08-17T06:57:59.073Z,16.62
2022-08-17T07:00:33.700Z,16.64
2022-08-17T07:03:28.311Z,16.59
2022-08-17T07:06:02.803Z,16.61
2022-08-17T07:08:51.589Z,16.64
2022-08-17T07:11:27.395Z,16.66
2022-08-17T07:14:23.743Z,16.60
2022-08-17T07:16:53.555Z,16.59
2022-08-17T07:19:25.396Z,16.52
2022-08-17T07:22:10.699Z,16.52
2022-08-17T07:24:45.186Z,16.38
2022-08-17T07:27:22.521Z,16.34
2022-08-17T07:30:10.311Z,16.40
2022-08-17T07:32:40.139Z,16.44
2022-08-17T07:35:13.063Z,16.59
2022-08-17T07:37:45.932Z,16.51
2022-08-17T07:40:30.848Z,16.53
2022-08-17T07:43:31.159Z,16.63
2022-08-17T07:46:41.487Z,16.67
2022-08-17T07:49:12.594Z,16.63
2022-08-17T07:51:47.938Z,16.43
2022-08-17T07:54:23.552Z,16.40
2022-08-17T07:57:10.447Z,16.38
2022-08-17T07:59:40.703Z,16.38
2022-08-17T08:02:31.801Z,16.35
2022-08-17T08:05:06.774Z,16.39
2022-08-17T08:07:56.470Z,16.43
2022-08-17T08:10:32.414Z,16.28
2022-08-17T08:13:23.154Z,16.34
2022-08-17T08:15:54.466Z,16.44
2022-08-17T08:18:53.698Z,16.44
2022-08-17T08:21:44.323Z,16.48
2022-08-17T08:24:23.111Z,16.67
2022-08-17T08:26:56.318Z,16.97
2022-08-17T08:29:58.364Z,17.03
2022-08-17T08:32:50.321Z,17.34
2022-08-17T08:35:46.127Z,17.24
2022-08-17T08:38:28.558Z,17.46
2022-08-17T08:41:08.418Z,17.71
2022-08-17T08:43:36.326Z,17.81
2022-08-17T08:46:11.898Z,17.92
2022-08-17T08:48:52.976Z,18.07
2022-08-17T08:51:46.511Z,18.25
2022-08-17T08:54:35.010Z,18.35
2022-08-17T08:57:33.371Z,18.06
2022-08-17T09:00:07.370Z,18.21
2022-08-17T09:02:47.014Z,18.10
2022-08-17T09:05:22.714Z,18.27
2022-08-17T09:08:15.824Z,18.00
2022-08-17T09:11:06.523Z,18.30
2022-08-17T09:13:38.827Z,18.21
2022-08-17T09:16:15.284Z,18.18
2022-08-17T09:19:01.894Z,18.30
2022-08-17T09:21:47.787Z,18.09
2022-08-17T09:24:33.497Z,18.19
2022-08-17T09:27:15.891Z,18.18
2022-08-17T09:29:49.659Z,18.10
2022-08-17T09:32:24.785Z,18.14
2022-08-17T09:34:55.301Z,18.20
2022-08-17T09:37:37.660Z,18.34
2022-08-17T09:40:30.557Z,18.43
2022-08-17T09:43:13.075Z,18.18
2022-08-17T09:45:50.700Z,18.10
2022-08-17T09:48:29.429Z,18.04
2022-08-17T09:51:48.675Z,17.85
2022-08-17T09:54:39.206Z,17.78
2022-08-17T09:57:37.829Z,17.64
2022-08-17T10:00:26.881Z,17.61
2022-08-17T10:03:18.036Z,17.82
2022-08-17T10:06:08.355Z,17.78
2022-08-17T10:08:45.983Z,17.71
2022-08-17T10:11:48.282Z,17.65
2022-08-17T10:14:44.892Z,17.70
2022-08-17T10:17:38.483Z,17.65
2022-08-17T10:20:16.877Z,17.70
2022-08-17T10:23:44.218Z,17.71
2022-08-17T10:26:20.579Z,17.57
2022-08-17T10:29:03.224Z,17.51
2022-08-17T10:31:35.982Z,17.67
2022-08-17T10:34:27.901Z,17.43
2022-08-17T10:37:09.669Z,17.39
2022-08-17T10:39:57.455Z,17.51
2022-08-17T10:42:36.720Z,17.56
2022-08-17T10:45:33.966Z,18.07
2022-08-17T10:48:07.252Z,18.15
2022-08-17T10:50:57.990Z,18.53
2022-08-17T10:53:37.743Z,18.50
2022-08-17T10:56:19.513Z,18.58
2022-08-17T10:58:49.467Z,18.70
2022-08-17T11:01:18.108Z,18.82
2022-08-17T11:03:57.055Z,19.02
2022-08-17T11:06:36.247Z,19.36
2022-08-17T11:09:34.917Z,19.76
2022-08-17T11:12:10.455Z,19.78
2022-08-17T11:15:00.522Z,19.95
2022-08-17T11:18:01.719Z,20.19
2022-08-17T11:20:51.957Z,20.22
2022-08-17T11:23:43.204Z,20.53
2022-08-17T11:26:25.922Z,21.64
2022-08-17T11:29:00.119Z,21.99
2022-08-17T11:31:41.546Z,22.14
2022-08-17T11:34:31.002Z,22.22
2022-08-17T11:37:06.851Z,21.70
2022-08-17T11:39:52.112Z,21.50
2022-08-17T11:42:37.513Z,20.76
2022-08-17T11:45:31.773Z,20.66
2022-08-17T11:48:34.250Z,20.63
2022-08-17T11:51:35.410Z,20.62
2022-08-17T11:54:34.363Z,21.36
2022-08-17T11:57:27.043Z,21.55
2022-08-17T11:59:54.933Z,21.70
2022-08-17T12:02:35.246Z,22.08
2022-08-17T12:05:27.520Z,21.57
2022-08-17T12:08:08.404Z,21.75
2022-08-17T12:10:40.045Z,21.89
2022-08-17T12:13:17.437Z,21.64
2022-08-17T12:15:50.473Z,21.75
2022-08-17T12:18:54.207Z,21.87
2022-08-17T12:21:27.958Z,21.66
2022-08-17T12:24:08.872Z,21.73
2022-08-17T12:26:36.844Z,21.77
2022-08-17T12:29:38.915Z,21.71
2022-08-17T12:32:02.138Z,21.72
2022-08-17T12:34:36.994Z,21.78
2022-08-17T12:37:08.164Z,22.01
2022-08-17T12:39:34.907Z,22.02
2022-08-17T12:42:02.891Z,22.12
2022-08-17T12:44:34.131Z,22.28
2022-08-17T12:47:22.553Z,22.26
2022-08-17T12:49:52.756Z,22.26
2022-08-17T12:52:28.163Z,22.49
2022-08-17T12:54:59.629Z,22.87
2022-08-17T12:57:34.458Z,23.17
2022-08-17T13:00:07.912Z,23.38
2022-08-17T13:02:51.213Z,23.48
2022-08-17T13:05:22.841Z,23.69
2022-08-17T13:07:53.392Z,23.36
2022-08-17T13:10:28.628Z,23.48
2022-08-17T13:13:03.699Z,23.55
2022-08-17T13:15:52.632Z,22.83
2022-08-17T13:18:38.913Z,22.64
2022-08-17T13:21:11.680Z,22.64
2022-08-17T13:23:38.659Z,22.33
2022-08-17T13:26:16.086Z,22.25
2022-08-17T13:28:51.561Z,22.37
2022-08-17T13:31:49.187Z,22.44
2022-08-17T13:34:28.251Z,23.11
2022-08-17T13:37:33.007Z,23.81
2022-08-17T13:40:11.867Z,24.29
2022-08-17T13:42:54.005Z,24.63
2022-08-17T13:45:35.193Z,24.71
2022-08-17T13:48:14.532Z,25.03
2022-08-17T13:54:35.087Z,25.13
2022-08-17T13:57:07.812Z,25.21
2022-08-17T13:59:54.318Z,23.79
2022-08-17T14:02:22.857Z,23.67
2022-08-17T14:04:54.517Z,23.86
2022-08-17T14:07:40.403Z,24.13
2022-08-17T14:10:15.169Z,24.52
2022-08-17T14:12:44.908Z,24.55
2022-08-17T14:15:14.808Z,24.75
2022-08-17T14:17:42.016Z,24.35
2022-08-17T14:20:12.136Z,24.26
2022-08-17T14:22:43.332Z,23.76
2022-08-17T14:25:12.866Z,23.93
2022-08-17T14:27:51.803Z,24.76
2022-08-17T14:30:26.895Z,24.97
2022-08-17T14:32:56.449Z,25.16
2022-08-17T14:35:24.788Z,25.42
2022-08-17T14:37:52.370Z,25.74
2022-08-17T14:40:20.921Z,25.09
2022-08-17T14:42:48.183Z,25.13
2022-08-17T14:45:31.723Z,25.18
2022-08-17T14:48:04.496Z,25.06
2022-08-17T14:50:32.107Z,25.06
2022-08-17T14:53:03.816Z,25.29
2022-08-17T14:55:31.191Z,24.88
2022-08-17T14:57:57.902Z,24.40
2022-08-17T15:00:25.391Z,24.03
2022-08-17T15:02:55.224Z,23.92
2022-08-17T15:05:24.655Z,23.79
2022-08-17T15:07:53.390Z,23.67
2022-08-17T15:10:20.311Z,24.36
2022-08-17T15:12:47.036Z,24.31
2022-08-17T15:15:15.848Z,24.53
2022-08-17T15:17:45.961Z,24.14
2022-08-17T15:20:25.101Z,23.89
2022-08-17T15:22:55.930Z,24.20
2022-08-17T15:25:24.385Z,23.86
2022-08-17T15:27:51.287Z,23.42
2022-08-17T15:30:18.118Z,23.21
2022-08-17T15:32:45.782Z,23.18
2022-08-17T15:35:26.911Z,23.04
2022-08-17T15:37:54.388Z,23.02
2022-08-17T15:40:21.190Z,23.02
2022-08-17T15:42:47.756Z,22.87
2022-08-17T15:45:17.059Z,22.75
2022-08-17T15:47:43.991Z,22.69
2022-08-17T15:50:11.207Z,22.73
2022-08-17T15:52:40.562Z,22.68
2022-08-17T15:55:10.935Z,22.70
2022-08-17T15:57:37.728Z,22.68
2022-08-17T16:00:06.424Z,22.80
2022-08-17T16:03:46.197Z,23.13
2022-08-17T16:05:25.193Z,22.93
2022-08-17T16:07:52.602Z,22.95
2022-08-17T16:10:21.031Z,22.66
2022-08-17T16:12:50.086Z,22.46
2022-08-17T16:15:18.163Z,22.56
2022-08-17T16:17:44.854Z,22.56
2022-08-17T16:20:20.625Z,22.34
2022-08-17T16:22:49.693Z,22.63
2022-08-17T16:25:52.168Z,22.69
2022-08-17T16:28:12.355Z,23.26
2022-08-17T16:30:39.069Z,23.33
2022-08-17T16:33:05.827Z,23.06
2022-08-17T16:35:32.796Z,23.06
2022-08-17T16:37:59.499Z,23.11
2022-08-17T16:40:29.494Z,23.25
2022-08-17T16:42:58.019Z,23.50
2022-08-17T16:45:37.011Z,23.66
2022-08-17T16:48:04.502Z,23.68
2022-08-17T16:50:32.278Z,23.88
2022-08-17T16:53:18.480Z,24.36
2022-08-17T16:55:46.680Z,25.29
2022-08-17T16:58:14.536Z,25.90
2022-08-17T17:00:42.930Z,26.12
2022-08-17T17:03:19.469Z,26.26
2022-08-17T17:06:14.147Z,25.12
2022-08-17T17:08:48.434Z,23.85
2022-08-17T17:11:33.751Z,23.25
2022-08-17T17:14:04.260Z,23.17
2022-08-17T17:16:30.812Z,22.98
2022-08-17T17:19:11.019Z,22.85
2022-08-17T17:22:36.177Z,22.83
2022-08-17T17:25:14.974Z,22.95
2022-08-17T17:28:06.614Z,22.93
2022-08-17T17:30:48.148Z,23.10
2022-08-17T17:33:40.426Z,23.24
2022-08-17T17:36:18.799Z,23.37
2022-08-17T17:38:53.169Z,23.28
2022-08-17T17:41:33.956Z,23.18
2022-08-17T17:44:13.628Z,23.09
2022-08-17T17:46:50.457Z,22.96
2022-08-17T17:49:18.852Z,22.91
2022-08-17T17:52:23.869Z,22.82
2022-08-17T17:55:18.138Z,22.65
2022-08-17T17:58:03.060Z,22.48
2022-08-17T18:00:44.626Z,22.42
2022-08-17T18:03:26.219Z,22.31
2022-08-17T18:06:21.167Z,22.15
2022-08-17T18:09:04.293Z,21.99
2022-08-17T18:11:59.620Z,21.86
2022-08-17T18:14:39.202Z,21.73
2022-08-17T18:17:06.139Z,21.65
2022-08-17T18:19:33.211Z,21.53
2022-08-17T18:22:27.761Z,21.47
2022-08-17T18:24:57.185Z,21.36
2022-08-17T18:27:50.458Z,21.25
2022-08-17T18:30:17.388Z,21.13
2022-08-17T18:32:46.762Z,21.06
2022-08-17T18:35:15.988Z,21.05
2022-08-17T18:38:12.969Z,20.99
2022-08-17T18:40:42.858Z,20.92
2022-08-17T18:43:44.495Z,20.83
2022-08-17T18:46:28.771Z,20.74
2022-08-17T18:49:24.729Z,20.59
2022-08-17T18:52:29.611Z,20.47
2022-08-17T18:55:20.048Z,20.38
2022-08-17T18:57:55.612Z,20.29
2022-08-17T19:00:40.616Z,20.22
2022-08-17T19:03:25.737Z,20.18
2022-08-17T19:06:15.170Z,20.13
2022-08-17T19:08:42.235Z,20.04
2022-08-17T19:11:17.026Z,19.91
2022-08-17T19:13:54.937Z,19.77
2022-08-17T19:16:52.261Z,19.63
2022-08-17T19:19:23.536Z,19.51
2022-08-17T19:22:28.924Z,19.40
2022-08-17T19:25:17.396Z,19.27
2022-08-17T19:27:57.451Z,19.20
2022-08-17T19:30:25.452Z,19.10
2022-08-17T19:32:53.114Z,18.99
2022-08-17T19:35:24.804Z,18.87
2022-08-17T19:38:13.141Z,18.83
2022-08-17T19:41:12.930Z,18.79
2022-08-17T19:44:06.684Z,18.79
2022-08-17T19:46:49.987Z,18.84
2022-08-17T19:49:33.028Z,18.86
2022-08-17T19:52:32.730Z,18.92
2022-08-17T19:55:20.589Z,18.89
2022-08-17T19:58:03.506Z,18.91
2022-08-17T20:00:33.888Z,18.93
2022-08-17T20:03:06.677Z,18.94
2022-08-17T20:06:10.923Z,18.90
2022-08-17T20:09:14.843Z,18.80
2022-08-17T20:11:47.424Z,18.71
2022-08-17T20:14:53.567Z,18.65
2022-08-17T20:17:28.452Z,18.63
2022-08-17T20:20:07.591Z,18.56
2022-08-17T20:23:02.530Z,18.44
2022-08-17T20:25:47.766Z,18.39
2022-08-17T20:28:28.061Z,18.43
2022-08-17T20:30:55.096Z,18.50
2022-08-17T20:33:36.940Z,18.54
2022-08-17T20:36:22.488Z,18.59
2022-08-17T20:38:53.847Z,18.56
2022-08-17T20:41:22.553Z,18.56
2022-08-17T20:44:02.451Z,18.58
2022-08-17T20:46:40.692Z,18.54
2022-08-17T20:49:25.344Z,18.55
2022-08-17T20:52:09.135Z,18.56
2022-08-17T20:54:54.689Z,18.51
2022-08-17T20:57:33.544Z,18.49
2022-08-17T21:00:33.293Z,18.40
2022-08-17T21:03:24.587Z,18.40
2022-08-17T21:06:17.351Z,18.39
2022-08-17T21:08:53.262Z,18.41
2022-08-17T21:11:56.920Z,18.41
2022-08-17T21:14:19.093Z,18.41
2022-08-17T21:17:04.811Z,18.39
2022-08-17T21:20:10.799Z,18.34
2022-08-17T21:23:05.399Z,18.29
2022-08-17T21:26:02.946Z,18.31
2022-08-17T21:29:01.102Z,18.28
2022-08-17T21:34:21.052Z,18.18
2022-08-17T21:36:48.543Z,18.10
2022-08-17T21:39:21.422Z,18.03
2022-08-17T21:41:55.904Z,17.95
2022-08-17T21:44:31.632Z,17.90
2022-08-17T21:47:19.744Z,17.80
2022-08-17T21:49:46.357Z,17.75
2022-08-17T21:52:20.028Z,17.65
2022-08-17T21:54:58.664Z,17.57
2022-08-17T21:57:27.829Z,17.48
2022-08-17T22:00:01.514Z,17.42
2022-08-17T22:02:35.138Z,17.37
2022-08-17T22:05:07.116Z,17.29
2022-08-17T22:07:45.769Z,17.30
2022-08-17T22:10:39.777Z,17.28
2022-08-17T22:13:06.347Z,17.29
2022-08-17T22:15:46.754Z,17.28
2022-08-17T22:18:19.975Z,17.24
2022-08-17T22:20:51.953Z,17.15
2022-08-17T22:23:59.326Z,17.11
2022-08-17T22:26:48.864Z,17.11
2022-08-17T22:29:56.936Z,17.07
2022-08-17T22:32:47.289Z,17.03
2022-08-17T22:35:29.201Z,17.03
2022-08-17T22:37:57.246Z,16.94
2022-08-17T22:40:33.734Z,16.92
2022-08-17T22:43:03.461Z,16.89
2022-08-17T22:45:31.171Z,16.89
2022-08-17T22:47:59.918Z,16.86
2022-08-17T22:50:29.667Z,16.82
2022-08-17T22:53:21.425Z,16.78
2022-08-17T22:56:15.334Z,16.83
2022-08-17T22:59:08.161Z,16.84
2022-08-17T23:01:35.536Z,16.80
2022-08-17T23:04:09.578Z,16.77
2022-08-17T23:06:38.263Z,16.72
2022-08-17T23:09:06.763Z,16.65
2022-08-17T23:11:49.231Z,16.56
2022-08-17T23:14:20.326Z,16.49
2022-08-17T23:16:50.970Z,16.40
2022-08-17T23:19:20.165Z,16.31
2022-08-17T23:21:47.439Z,16.22
2022-08-17T23:24:21.424Z,16.19
2022-08-17T23:26:48.256Z,16.21
2022-08-17T23:29:15.079Z,16.18
2022-08-17T23:31:41.919Z,16.16
2022-08-17T23:34:15.259Z,16.14
2022-08-17T23:36:52.399Z,16.12
2022-08-17T23:39:27.844Z,16.10
2022-08-17T23:41:56.438Z,16.06
2022-08-17T23:44:23.501Z,16.03
2022-08-17T23:46:53.168Z,16.02
2022-08-17T23:49:20.373Z,16.02
2022-08-17T23:51:48.661Z,16.02
2022-08-17T23:54:21.596Z,16.04
2022-08-17T23:56:48.245Z,16.05
2022-08-17T23:59:16.596Z,16.06
